Time;durP1;ratioP1;P1;durP2;ratioP2;P2;SDS_P1;SDS_P2;PMS_P1;PMS_P2;Temp;Humidity;BMP_temperature;BMP_pressure;BME280_temperature;BME280_humidity;BME280_pressure;Samples;Min_cycle;Max_cycle;Signal;HPM_P1;HPM_P2
2022/10/01 00:01:42;;;;;;;;;;;6.40;99.90;;;;;;5043822;28;19921;-69
2022/10/01 00:04:09;;;;;;;;;;;6.40;99.90;;;;;;5044057;28;20068;-70
2022/10/01 00:06:36;;;;;;;;;;;6.40;99.90;;;;;;5043442;28;19921;-69
2022/10/01 00:09:02;;;;;;;;;;;6.50;99.90;;;;;;5043829;28;19921;-70
2022/10/01 00:11:29;;;;;;;;;;;6.50;99.90;;;;;;5043817;28;20205;-69
2022/10/01 00:13:57;;;;;;;;;;;6.50;99.90;;;;;;5044039;28;19925;-69
2022/10/01 00:16:24;;;;;;;;;;;6.50;99.90;;;;;;5043373;28;19921;-71
2022/10/01 00:18:53;;;;;;;;;;;6.50;99.90;;;;;;5044104;28;19960;-70
2022/10/01 00:21:20;;;;;;;;;;;6.50;99.90;;;;;;5043808;28;19921;-69
2022/10/01 00:23:48;;;;;;;;;;;6.50;99.90;;;;;;5042714;28;20276;-70
2022/10/01 00:26:16;;;;;;;;;;;6.60;99.90;;;;;;5043211;28;20267;-70
2022/10/01 00:28:43;;;;;;;;;;;6.60;99.90;;;;;;5043797;28;19921;-69
2022/10/01 00:31:10;;;;;;;;;;;6.60;99.90;;;;;;5043666;28;19928;-69
2022/10/01 00:33:37;;;;;;;;;;;6.60;99.90;;;;;;5043807;28;19921;-69
2022/10/01 00:36:06;;;;;;;;;;;6.60;99.90;;;;;;5042976;28;19927;-69
2022/10/01 00:38:32;;;;;;;;;;;6.70;99.90;;;;;;5043430;28;20222;-69
2022/10/01 00:40:59;;;;;;;;;;;6.70;99.90;;;;;;5043354;28;19960;-71
2022/10/01 00:43:27;;;;;;;;;;;6.70;99.90;;;;;;5043383;28;19921;-69
2022/10/01 00:45:55;;;;;;;;;;;6.70;99.90;;;;;;5043087;28;19921;-70
2022/10/01 00:48:22;;;;;;;;;;;6.70;99.90;;;;;;5043686;28;19988;-69
2022/10/01 00:50:49;;;;;;;;;;;6.70;99.90;;;;;;5043523;28;19921;-70
2022/10/01 00:53:18;;;;;;;;;;;6.70;99.90;;;;;;5043249;28;20300;-70
2022/10/01 00:55:46;;;;;;;;;;;6.70;99.90;;;;;;5046055;28;19927;-69
2022/10/01 00:58:14;;;;;;;;;;;6.70;99.90;;;;;;5047431;28;20267;-70
2022/10/01 01:00:41;;;;;;;;;;;6.70;99.90;;;;;;5047785;28;19921;-69
2022/10/01 01:03:09;;;;;;;;;;;6.70;99.90;;;;;;5047561;28;20119;-71
2022/10/01 01:05:36;;;;;;;;;;;6.60;99.90;;;;;;5046872;28;19921;-69
2022/10/01 01:08:03;;;;;;;;;;;6.60;99.90;;;;;;5047702;28;19984;-70
2022/10/01 01:10:36;;;;;;;;;;;6.60;99.90;;;;;;5047371;28;20112;-69
2022/10/01 01:13:08;;;;;;;;;;;6.60;99.90;;;;;;5047640;28;19929;-69
2022/10/01 01:15:36;;;;;;;;;;;6.60;99.90;;;;;;5047227;28;19921;-69
2022/10/01 01:18:06;;;;;;;;;;;6.60;99.90;;;;;;5047482;28;19921;-69
2022/10/01 01:20:53;;;;;;;;;;;6.60;99.90;;;;;;5047179;28;19963;-70
2022/10/01 01:23:29;;;;;;;;;;;6.60;99.90;;;;;;5045184;28;20227;-70
2022/10/01 01:26:01;;;;;;;;;;;6.50;99.90;;;;;;5046845;28;19989;-69
2022/10/01 01:28:31;;;;;;;;;;;6.50;99.90;;;;;;5047325;28;19925;-69
2022/10/01 01:30:59;;;;;;;;;;;6.50;99.90;;;;;;5046814;28;20274;-69
2022/10/01 01:33:29;;;;;;;;;;;6.50;99.90;;;;;;5046622;28;20008;-69
2022/10/01 01:35:58;;;;;;;;;;;6.50;99.90;;;;;;5046701;28;20097;-69
2022/10/01 01:38:26;;;;;;;;;;;6.40;99.90;;;;;;5046947;28;20239;-69
2022/10/01 01:40:54;;;;;;;;;;;6.40;99.90;;;;;;5046787;28;19921;-69
2022/10/01 01:43:23;;;;;;;;;;;6.30;99.90;;;;;;5046850;28;19921;-70
2022/10/01 01:45:53;;;;;;;;;;;6.30;99.90;;;;;;5046357;28;19921;-70
2022/10/01 01:48:21;;;;;;;;;;;6.30;99.90;;;;;;5046855;28;20220;-69
2022/10/01 01:50:51;;;;;;;;;;;6.30;99.90;;;;;;5046760;28;19921;-70
2022/10/01 01:53:19;;;;;;;;;;;6.30;99.90;;;;;;5046920;28;20120;-69
2022/10/01 01:55:48;;;;;;;;;;;6.30;99.90;;;;;;5046231;28;20209;-69
2022/10/01 01:58:15;;;;;;;;;;;6.30;99.90;;;;;;5046397;28;19927;-69
2022/10/01 02:00:41;;;;;;;;;;;6.30;99.90;;;;;;5046431;28;20131;-70
2022/10/01 02:03:10;;;;;;;;;;;6.30;99.90;;;;;;5046474;28;19984;-70
2022/10/01 02:05:42;;;;;;;;;;;6.30;99.90;;;;;;5046085;28;19921;-70
2022/10/01 02:08:16;;;;;;;;;;;6.30;99.90;;;;;;5046234;28;20222;-70
2022/10/01 02:10:49;;;;;;;;;;;6.20;99.90;;;;;;5046197;28;19963;-70
2022/10/01 02:13:23;;;;;;;;;;;6.20;99.90;;;;;;5046145;28;20227;-69
2022/10/01 02:15:55;;;;;;;;;;;6.20;99.90;;;;;;5045921;28;19987;-69
2022/10/01 02:18:29;;;;;;;;;;;6.20;99.90;;;;;;5046625;28;20290;-69
2022/10/01 02:21:01;;;;;;;;;;;6.20;99.90;;;;;;5046443;28;20247;-70
2022/10/01 02:23:30;;;;;;;;;;;6.10;99.90;;;;;;5046399;28;20019;-69
2022/10/01 02:25:58;;;;;;;;;;;6.20;99.90;;;;;;5045857;28;19921;-70
2022/10/01 02:28:24;;;;;;;;;;;6.10;99.90;;;;;;5046139;28;19921;-69
2022/10/01 02:30:52;;;;;;;;;;;6.20;99.90;;;;;;5046092;28;19921;-69
2022/10/01 02:33:24;;;;;;;;;;;6.10;99.90;;;;;;5045237;28;20124;-69
2022/10/01 02:35:52;;;;;;;;;;;6.10;99.90;;;;;;5045198;28;19928;-69
2022/10/01 02:38:20;;;;;;;;;;;6.10;99.90;;;;;;5045848;28;19984;-70
2022/10/01 02:40:48;;;;;;;;;;;6.10;99.90;;;;;;5045617;28;19984;-69
2022/10/01 02:43:17;;;;;;;;;;;6.10;99.90;;;;;;5045814;28;19921;-71
2022/10/01 02:45:45;;;;;;;;;;;6.00;99.90;;;;;;5044990;28;19928;-69
2022/10/01 02:48:16;;;;;;;;;;;6.00;99.90;;;;;;5045801;28;19921;-70
2022/10/01 02:50:46;;;;;;;;;;;6.00;99.90;;;;;;5045720;28;19929;-69
2022/10/01 02:53:19;;;;;;;;;;;6.00;99.90;;;;;;5045534;28;19980;-70
2022/10/01 02:55:46;;;;;;;;;;;5.90;99.90;;;;;;5044776;28;19921;-69
2022/10/01 02:58:12;;;;;;;;;;;5.90;99.90;;;;;;5045650;28;19920;-70
2022/10/01 03:00:38;;;;;;;;;;;5.90;99.90;;;;;;5045463;28;20204;-69
2022/10/01 03:03:05;;;;;;;;;;;5.90;99.90;;;;;;5045371;28;19927;-69
2022/10/01 03:05:31;;;;;;;;;;;5.90;99.90;;;;;;5044935;28;19988;-69
2022/10/01 03:07:58;;;;;;;;;;;5.90;99.90;;;;;;5045305;28;20179;-69
2022/10/01 03:10:26;;;;;;;;;;;5.80;99.90;;;;;;5045246;28;19987;-69
2022/10/01 03:12:53;;;;;;;;;;;5.80;99.90;;;;;;5045139;28;19921;-69
2022/10/01 03:15:19;;;;;;;;;;;5.80;99.90;;;;;;5044790;28;19948;-70
2022/10/01 03:17:46;;;;;;;;;;;5.80;99.90;;;;;;5044220;28;20212;-69
2022/10/01 03:20:13;;;;;;;;;;;5.80;99.90;;;;;;5044823;28;19992;-70
2022/10/01 03:22:39;;;;;;;;;;;5.80;99.90;;;;;;5045068;28;19988;-69
2022/10/01 03:25:06;;;;;;;;;;;5.80;99.90;;;;;;5044345;28;20235;-69
2022/10/01 03:27:34;;;;;;;;;;;5.80;99.90;;;;;;5044598;28;19980;-70
2022/10/01 03:30:01;;;;;;;;;;;5.90;99.90;;;;;;5044841;28;19928;-70
2022/10/01 03:32:27;;;;;;;;;;;6.00;99.90;;;;;;5044801;28;19984;-69
2022/10/01 03:34:54;;;;;;;;;;;6.00;99.90;;;;;;5044540;28;19921;-70
2022/10/01 03:37:20;;;;;;;;;;;6.10;99.90;;;;;;5044616;28;20111;-69
2022/10/01 03:39:47;;;;;;;;;;;6.20;99.90;;;;;;5054884;28;19921;-70
2022/10/01 03:42:15;;;;;;;;;;;6.30;99.90;;;;;;5064456;28;19999;-70
2022/10/01 03:44:43;;;;;;;;;;;6.40;99.90;;;;;;5057459;28;20093;-70
2022/10/01 03:47:10;;;;;;;;;;;6.50;99.90;;;;;;5044968;28;19979;-70
2022/10/01 03:49:36;;;;;;;;;;;6.60;99.90;;;;;;5044742;28;19984;-71
2022/10/01 03:52:04;;;;;;;;;;;6.70;99.90;;;;;;5044273;28;20205;-70
2022/10/01 03:54:30;;;;;;;;;;;6.70;99.90;;;;;;5044572;28;19936;-71
2022/10/01 03:56:57;;;;;;;;;;;6.80;99.90;;;;;;5043931;28;20230;-70
2022/10/01 03:59:25;;;;;;;;;;;6.80;99.90;;;;;;5044524;28;19922;-70
2022/10/01 04:01:54;;;;;;;;;;;6.80;99.90;;;;;;5044489;28;19920;-70
2022/10/01 04:04:20;;;;;;;;;;;6.80;99.90;;;;;;5044379;28;19929;-70
2022/10/01 04:06:47;;;;;;;;;;;6.80;99.90;;;;;;5043826;28;19984;-70
2022/10/01 04:09:14;;;;;;;;;;;6.80;99.90;;;;;;5044445;28;19984;-70
2022/10/01 04:11:40;;;;;;;;;;;6.90;99.90;;;;;;5044399;28;19921;-70
2022/10/01 04:14:07;;;;;;;;;;;6.80;99.90;;;;;;5044166;28;19980;-70
2022/10/01 04:16:34;;;;;;;;;;;6.90;99.90;;;;;;5043880;28;19984;-70
2022/10/01 04:19:03;;;;;;;;;;;6.90;99.90;;;;;;5043998;28;19989;-69
2022/10/01 04:21:29;;;;;;;;;;;6.90;99.90;;;;;;5044087;28;19931;-70
2022/10/01 04:23:56;;;;;;;;;;;6.90;99.90;;;;;;5044130;28;20153;-70
2022/10/01 04:26:23;;;;;;;;;;;6.90;99.90;;;;;;5043626;28;19984;-70
2022/10/01 04:28:49;;;;;;;;;;;6.90;99.90;;;;;;5043073;28;19996;-70
2022/10/01 04:31:25;;;;;;;;;;;6.90;99.90;;;;;;5043723;28;19921;-70
2022/10/01 04:33:51;;;;;;;;;;;7.00;99.90;;;;;;5043920;28;19984;-70
2022/10/01 04:36:20;;;;;;;;;;;6.90;99.90;;;;;;5043147;28;19927;-70
2022/10/01 04:38:46;;;;;;;;;;;7.00;99.90;;;;;;5043837;28;19929;-70
2022/10/01 04:41:13;;;;;;;;;;;7.00;99.90;;;;;;5043589;28;20189;-70
2022/10/01 04:43:40;;;;;;;;;;;7.00;99.90;;;;;;5043766;28;19921;-70
2022/10/01 04:46:07;;;;;;;;;;;7.00;99.90;;;;;;5043250;28;19980;-70
2022/10/01 04:48:33;;;;;;;;;;;7.00;99.90;;;;;;5043610;28;19921;-70
2022/10/01 04:51:00;;;;;;;;;;;7.00;99.90;;;;;;5043858;28;20141;-70
2022/10/01 04:53:28;;;;;;;;;;;7.00;99.90;;;;;;5043711;28;19989;-70
2022/10/01 04:55:55;;;;;;;;;;;7.10;99.90;;;;;;5042995;28;19925;-70
2022/10/01 04:58:21;;;;;;;;;;;7.00;99.90;;;;;;5043613;28;20093;-69
2022/10/01 05:00:48;;;;;;;;;;;7.00;99.90;;;;;;5043740;28;19921;-70
2022/10/01 05:03:15;;;;;;;;;;;7.00;99.90;;;;;;5043532;28;19921;-70
2022/10/01 05:05:41;;;;;;;;;;;7.00;99.90;;;;;;5042986;28;19921;-70
2022/10/01 05:08:09;;;;;;;;;;;7.00;99.90;;;;;;5043727;28;19921;-69
2022/10/01 05:10:37;;;;;;;;;;;7.00;99.90;;;;;;5043761;28;19956;-70
2022/10/01 05:13:03;;;;;;;;;;;7.00;99.90;;;;;;5043683;28;19921;-70
2022/10/01 05:15:30;;;;;;;;;;;7.00;99.90;;;;;;5043334;28;19989;-70
2022/10/01 05:17:57;;;;;;;;;;;7.00;99.90;;;;;;5043316;28;20192;-70
2022/10/01 05:20:25;;;;;;;;;;;7.10;99.90;;;;;;5043255;28;20212;-70
2022/10/01 05:22:52;;;;;;;;;;;7.10;99.90;;;;;;5043503;28;19922;-71
2022/10/01 05:25:18;;;;;;;;;;;7.10;99.90;;;;;;5043108;28;19929;-70
2022/10/01 05:27:46;;;;;;;;;;;7.10;99.90;;;;;;5043390;28;19957;-70
2022/10/01 05:30:17;;;;;;;;;;;7.10;99.90;;;;;;5043518;28;20204;-70
2022/10/01 05:32:53;;;;;;;;;;;7.10;99.90;;;;;;5043180;28;19928;-70
2022/10/01 05:35:19;;;;;;;;;;;7.10;99.90;;;;;;5043004;28;19921;-69
2022/10/01 05:37:46;;;;;;;;;;;7.10;99.90;;;;;;5042940;28;20094;-69
2022/10/01 05:40:12;;;;;;;;;;;7.10;99.90;;;;;;5043415;28;19984;-70
2022/10/01 05:42:44;;;;;;;;;;;7.10;99.90;;;;;;5047306;28;19921;-70
2022/10/01 05:45:12;;;;;;;;;;;7.10;99.90;;;;;;5046461;28;19927;-70
2022/10/01 05:47:41;;;;;;;;;;;7.10;99.90;;;;;;5047160;28;19929;-70
2022/10/01 05:50:08;;;;;;;;;;;7.10;99.90;;;;;;5046485;28;19960;-70
2022/10/01 05:52:35;;;;;;;;;;;7.10;99.90;;;;;;5047004;28;19928;-70
2022/10/01 05:55:01;;;;;;;;;;;7.20;99.90;;;;;;5046660;28;20127;-70
2022/10/01 05:57:28;;;;;;;;;;;7.20;99.90;;;;;;5046470;28;19921;-70
2022/10/01 05:59:56;;;;;;;;;;;7.20;99.90;;;;;;5046483;28;19971;-69
2022/10/01 06:02:24;;;;;;;;;;;7.30;99.90;;;;;;5046385;28;19921;-70
2022/10/01 06:04:50;;;;;;;;;;;7.30;99.90;;;;;;5060374;28;19921;-70
2022/10/01 06:07:17;;;;;;;;;;;7.30;99.90;;;;;;5066341;28;19988;-70
2022/10/01 06:09:44;;;;;;;;;;;7.40;99.90;;;;;;5066523;28;19927;-70
2022/10/01 06:12:10;;;;;;;;;;;7.40;99.90;;;;;;5066452;28;19959;-70
2022/10/01 06:14:37;;;;;;;;;;;7.40;99.90;;;;;;5060796;28;20234;-70
2022/10/01 06:17:04;;;;;;;;;;;7.40;99.90;;;;;;5046302;28;19921;-70
2022/10/01 06:19:32;;;;;;;;;;;7.50;99.90;;;;;;5046076;28;20164;-70
2022/10/01 06:21:59;;;;;;;;;;;7.50;99.90;;;;;;5046325;28;19928;-70
2022/10/01 06:24:30;;;;;;;;;;;7.60;99.90;;;;;;5045121;28;19996;-70
2022/10/01 06:26:57;;;;;;;;;;;7.60;99.90;;;;;;5045725;28;19963;-71
2022/10/01 06:29:23;;;;;;;;;;;7.60;99.90;;;;;;5045811;28;19921;-71
2022/10/01 06:31:50;;;;;;;;;;;7.60;99.90;;;;;;5045652;28;19944;-69
2022/10/01 06:34:17;;;;;;;;;;;7.70;99.90;;;;;;5045764;28;20117;-68
2022/10/01 06:36:45;;;;;;;;;;;7.70;99.90;;;;;;5054353;28;19987;-69
2022/10/01 06:39:11;;;;;;;;;;;7.70;99.90;;;;;;5054966;28;19936;-69
2022/10/01 06:41:38;;;;;;;;;;;7.80;99.90;;;;;;5045151;28;19992;-69
2022/10/01 06:44:05;;;;;;;;;;;7.80;99.90;;;;;;5044829;28;19975;-69
2022/10/01 06:46:32;;;;;;;;;;;7.80;99.90;;;;;;5044973;28;20172;-69
2022/10/01 06:48:58;;;;;;;;;;;7.80;99.90;;;;;;5045402;28;19959;-69
2022/10/01 06:54:07;;;;;;;;;;;7.80;99.90;;;;;;5043972;28;19917;-70
2022/10/01 06:56:34;;;;;;;;;;;7.80;99.90;;;;;;5044141;28;19984;-69
2022/10/01 06:59:01;;;;;;;;;;;7.80;99.90;;;;;;5044885;28;19921;-70
2022/10/01 07:01:28;;;;;;;;;;;7.80;99.90;;;;;;5044939;28;19992;-70
2022/10/01 07:03:54;;;;;;;;;;;7.80;99.90;;;;;;5044669;28;19992;-69
2022/10/01 07:06:21;;;;;;;;;;;7.80;99.90;;;;;;5044424;28;19921;-70
2022/10/01 07:08:48;;;;;;;;;;;7.90;99.90;;;;;;5044619;28;19925;-69
2022/10/01 07:11:17;;;;;;;;;;;7.90;99.90;;;;;;5045017;28;19921;-69
2022/10/01 07:13:44;;;;;;;;;;;7.90;99.90;;;;;;5044384;28;19992;-70
2022/10/01 07:16:11;;;;;;;;;;;7.90;99.90;;;;;;5044268;28;19993;-70
2022/10/01 07:18:37;;;;;;;;;;;7.90;99.90;;;;;;5044365;28;19997;-69
2022/10/01 07:21:04;;;;;;;;;;;7.90;99.90;;;;;;5044640;28;19927;-69
2022/10/01 07:23:31;;;;;;;;;;;7.90;99.90;;;;;;5044486;28;19992;-70
2022/10/01 07:25:57;;;;;;;;;;;7.90;99.90;;;;;;5043675;28;20284;-70
2022/10/01 07:28:26;;;;;;;;;;;8.00;99.90;;;;;;5044011;28;19952;-70
2022/10/01 07:30:57;;;;;;;;;;;7.90;99.90;;;;;;5044353;28;19921;-69
2022/10/01 07:33:24;;;;;;;;;;;8.00;99.90;;;;;;5062810;28;19987;-69
2022/10/01 07:35:50;;;;;;;;;;;8.00;99.90;;;;;;5044252;28;19984;-70
2022/10/01 07:38:17;;;;;;;;;;;8.00;99.90;;;;;;5044014;28;19943;-69
2022/10/01 07:40:44;;;;;;;;;;;8.00;99.90;;;;;;5044276;28;19921;-70
2022/10/01 07:43:13;;;;;;;;;;;8.00;99.90;;;;;;5044111;28;19983;-69
2022/10/01 07:45:41;;;;;;;;;;;8.00;99.90;;;;;;5043337;28;20212;-69
2022/10/01 07:48:08;;;;;;;;;;;8.10;99.90;;;;;;5043907;28;20258;-70
2022/10/01 07:50:34;;;;;;;;;;;8.00;99.90;;;;;;5043638;28;19921;-70
2022/10/01 07:53:01;;;;;;;;;;;8.00;99.90;;;;;;5044129;28;19981;-70
2022/10/01 07:55:29;;;;;;;;;;;8.00;99.90;;;;;;5042504;28;19944;-69
2022/10/01 07:57:57;;;;;;;;;;;8.10;99.90;;;;;;5043850;28;20209;-69
2022/10/01 08:00:25;;;;;;;;;;;8.10;99.90;;;;;;5043617;28;19921;-69
2022/10/01 08:02:54;;;;;;;;;;;8.10;99.90;;;;;;5044006;28;19959;-70
2022/10/01 08:05:22;;;;;;;;;;;8.10;99.90;;;;;;5043065;28;20204;-69
2022/10/01 08:07:49;;;;;;;;;;;8.20;99.90;;;;;;5043664;28;19984;-69
2022/10/01 08:10:17;;;;;;;;;;;8.20;99.90;;;;;;5043593;28;20260;-69
2022/10/01 08:12:44;;;;;;;;;;;8.30;99.90;;;;;;5044015;28;19943;-70
2022/10/01 08:15:11;;;;;;;;;;;8.30;99.90;;;;;;5043354;28;19960;-70
2022/10/01 08:17:38;;;;;;;;;;;8.20;99.90;;;;;;5043555;28;19921;-69
2022/10/01 08:20:07;;;;;;;;;;;8.30;99.90;;;;;;5043546;28;19964;-70
2022/10/01 08:22:34;;;;;;;;;;;8.30;99.90;;;;;;5043248;28;19921;-71
2022/10/01 08:25:00;;;;;;;;;;;8.30;99.90;;;;;;5042340;28;20126;-70
2022/10/01 08:27:27;;;;;;;;;;;8.30;99.90;;;;;;5041738;28;20268;-70
2022/10/01 08:29:54;;;;;;;;;;;8.40;99.90;;;;;;5050943;28;19988;-70
2022/10/01 08:32:22;;;;;;;;;;;8.30;99.90;;;;;;5047742;28;19920;-70
2022/10/01 08:34:48;;;;;;;;;;;8.40;99.90;;;;;;5042934;28;20175;-70
2022/10/01 08:37:16;;;;;;;;;;;8.40;99.90;;;;;;5055454;28;19929;-70
2022/10/01 08:39:43;;;;;;;;;;;8.40;99.90;;;;;;5057691;28;20123;-70
2022/10/01 08:42:15;;;;;;;;;;;8.40;99.90;;;;;;5048092;28;19921;-70
2022/10/01 08:44:43;;;;;;;;;;;8.40;99.90;;;;;;5049741;28;19988;-69
2022/10/01 08:47:13;;;;;;;;;;;8.50;99.90;;;;;;5047444;28;19927;-70
2022/10/01 08:49:41;;;;;;;;;;;8.40;99.90;;;;;;5037902;28;19922;-70
2022/10/01 08:52:13;;;;;;;;;;;8.50;99.90;;;;;;5042848;28;19988;-70
2022/10/01 08:54:42;;;;;;;;;;;8.50;99.90;;;;;;5041729;28;19928;-70
2022/10/01 08:57:11;;;;;;;;;;;8.40;99.90;;;;;;5042056;28;20116;-70
2022/10/01 08:59:39;;;;;;;;;;;8.50;99.90;;;;;;5042307;28;19921;-70
2022/10/01 09:02:15;;;;;;;;;;;8.50;99.90;;;;;;5042760;28;20076;-70
2022/10/01 09:04:42;;;;;;;;;;;8.40;99.90;;;;;;5042284;28;19927;-70
2022/10/01 09:07:12;;;;;;;;;;;8.50;99.90;;;;;;5042733;28;19992;-71
2022/10/01 09:09:43;;;;;;;;;;;8.50;99.90;;;;;;5042894;28;19992;-70
2022/10/01 09:12:19;;;;;;;;;;;8.50;99.90;;;;;;5042810;28;19928;-70
2022/10/01 09:14:55;;;;;;;;;;;8.50;99.90;;;;;;5042207;28;19925;-70
2022/10/01 09:17:28;;;;;;;;;;;8.50;99.90;;;;;;5046437;28;19928;-70
2022/10/01 09:20:03;;;;;;;;;;;8.50;99.90;;;;;;5046867;28;19921;-69
2022/10/01 09:22:37;;;;;;;;;;;8.50;99.90;;;;;;5038470;28;20121;-70
2022/10/01 09:25:11;;;;;;;;;;;8.50;99.90;;;;;;5029224;28;20168;-70
2022/10/01 09:27:38;;;;;;;;;;;8.50;99.90;;;;;;5046670;28;19988;-70
2022/10/01 09:30:06;;;;;;;;;;;8.50;99.90;;;;;;5046598;28;19935;-70
2022/10/01 09:32:35;;;;;;;;;;;8.50;99.90;;;;;;5046644;28;19928;-70
2022/10/01 09:35:04;;;;;;;;;;;8.50;99.90;;;;;;5046574;28;19980;-70
2022/10/01 09:37:38;;;;;;;;;;;8.60;99.90;;;;;;5046383;28;19928;-70
2022/10/01 09:40:13;;;;;;;;;;;8.60;99.90;;;;;;5045060;28;19921;-70
2022/10/01 09:42:42;;;;;;;;;;;8.60;99.90;;;;;;5048450;28;19988;-70
2022/10/01 09:47:36;;;;;;;;;;;8.60;99.90;;;;;;5077749;28;19920;-73
2022/10/01 09:50:04;;;;;;;;;;;8.70;99.90;;;;;;5076974;28;20007;-73
2022/10/01 09:52:33;;;;;;;;;;;8.70;99.90;;;;;;5071492;28;19952;-71
2022/10/01 09:55:02;;;;;;;;;;;8.70;99.90;;;;;;5082177;28;19920;-76
2022/10/01 09:57:32;;;;;;;;;;;8.80;99.90;;;;;;5053561;28;19983;-72
2022/10/01 10:00:06;;;;;;;;;;;8.80;99.90;;;;;;5054094;28;20204;-74
2022/10/01 10:02:35;;;;;;;;;;;8.80;99.90;;;;;;5055840;28;20093;-74
2022/10/01 10:05:04;;;;;;;;;;;8.80;99.90;;;;;;5049880;28;19975;-71
2022/10/01 10:07:33;;;;;;;;;;;8.90;99.90;;;;;;5058138;28;19921;-73
2022/10/01 10:10:07;;;;;;;;;;;8.90;99.90;;;;;;5050040;28;19967;-72
2022/10/01 10:12:34;;;;;;;;;;;9.00;99.90;;;;;;5064512;28;19927;-72
2022/10/01 10:15:08;;;;;;;;;;;9.00;99.90;;;;;;5050856;28;19975;-74
2022/10/01 10:17:36;;;;;;;;;;;9.00;99.90;;;;;;5044549;28;19928;-73
2022/10/01 10:20:08;;;;;;;;;;;9.10;99.90;;;;;;5046626;28;19921;-73
2022/10/01 10:22:35;;;;;;;;;;;9.20;99.90;;;;;;5054963;28;19928;-73
2022/10/01 10:25:11;;;;;;;;;;;9.30;99.90;;;;;;5063446;28;19952;-73
2022/10/01 10:27:38;;;;;;;;;;;9.30;99.90;;;;;;5057831;28;20226;-73
2022/10/01 10:30:07;;;;;;;;;;;9.40;99.90;;;;;;5064009;28;19984;-73
2022/10/01 10:32:35;;;;;;;;;;;9.40;99.90;;;;;;5060854;28;20224;-72
2022/10/01 10:35:04;;;;;;;;;;;9.40;99.90;;;;;;5050061;28;19921;-73
2022/10/01 10:37:31;;;;;;;;;;;9.50;99.90;;;;;;5046988;28;19921;-76
2022/10/01 10:39:58;;;;;;;;;;;9.50;99.90;;;;;;5049713;28;19921;-73
2022/10/01 10:42:25;;;;;;;;;;;9.50;99.90;;;;;;5056926;28;19927;-73
2022/10/01 10:44:54;;;;;;;;;;;9.60;99.90;;;;;;5057783;28;19921;-73
2022/10/01 10:47:21;;;;;;;;;;;9.60;99.90;;;;;;5051194;28;20207;-74
2022/10/01 10:49:52;;;;;;;;;;;9.60;99.90;;;;;;5055693;28;20219;-73
2022/10/01 10:52:19;;;;;;;;;;;9.70;99.90;;;;;;5053645;28;20115;-73
2022/10/01 10:54:47;;;;;;;;;;;9.70;99.90;;;;;;5055356;28;19928;-73
2022/10/01 10:57:19;;;;;;;;;;;9.70;99.90;;;;;;5054246;28;19984;-73
2022/10/01 10:59:54;;;;;;;;;;;9.70;99.90;;;;;;5062473;28;19967;-74
2022/10/01 11:02:22;;;;;;;;;;;9.70;99.90;;;;;;5065461;28;19967;-75
2022/10/01 11:04:51;;;;;;;;;;;9.70;99.90;;;;;;5064689;28;19921;-73
2022/10/01 11:07:19;;;;;;;;;;;9.70;99.90;;;;;;5065203;28;20259;-75
2022/10/01 11:10:07;;;;;;;;;;;9.70;99.90;;;;;;5064695;28;19980;-75
2022/10/01 11:12:40;;;;;;;;;;;9.80;99.90;;;;;;5049063;28;19921;-76
2022/10/01 11:15:13;;;;;;;;;;;9.80;99.90;;;;;;5064391;28;19956;-74
2022/10/01 11:17:48;;;;;;;;;;;9.80;99.90;;;;;;5064804;28;19976;-74
2022/10/01 11:20:29;;;;;;;;;;;9.90;99.90;;;;;;5064973;28;19927;-71
2022/10/01 11:23:03;;;;;;;;;;;9.90;99.90;;;;;;5065237;28;19927;-73
2022/10/01 11:25:34;;;;;;;;;;;9.90;99.90;;;;;;5064939;28;19921;-77
2022/10/01 11:28:07;;;;;;;;;;;9.90;99.90;;;;;;5065312;28;19928;-75
2022/10/01 11:30:38;;;;;;;;;;;10.00;99.90;;;;;;5055885;28;19928;-76
2022/10/01 11:33:10;;;;;;;;;;;10.00;99.90;;;;;;5045034;28;19951;-76
2022/10/01 11:35:47;;;;;;;;;;;10.10;99.90;;;;;;5044631;28;19956;-75
2022/10/01 11:38:28;;;;;;;;;;;10.20;99.90;;;;;;5043642;28;20196;-75
2022/10/01 11:41:00;;;;;;;;;;;10.20;99.90;;;;;;5044617;28;19984;-76
2022/10/01 11:43:30;;;;;;;;;;;10.30;99.90;;;;;;5045034;28;19956;-75
2022/10/01 11:46:00;;;;;;;;;;;10.40;99.90;;;;;;5044929;28;19956;-77
2022/10/01 11:48:30;;;;;;;;;;;10.40;99.90;;;;;;5064440;28;19988;-74
2022/10/01 11:51:02;;;;;;;;;;;10.50;99.90;;;;;;5064164;28;20107;-74
2022/10/01 11:53:32;;;;;;;;;;;10.60;99.90;;;;;;5064801;28;19983;-75
2022/10/01 11:58:53;;;;;;;;;;;10.70;99.90;;;;;;5063379;28;19928;-75
2022/10/01 12:01:25;;;;;;;;;;;10.70;99.90;;;;;;5064448;28;19921;-73
2022/10/01 12:03:59;;;;;;;;;;;10.80;99.90;;;;;;5064337;28;19952;-75
2022/10/01 12:06:29;;;;;;;;;;;10.80;99.90;;;;;;5064165;28;19959;-76
2022/10/01 12:08:59;;;;;;;;;;;10.90;99.90;;;;;;5044366;28;19921;-75
2022/10/01 12:11:28;;;;;;;;;;;10.90;99.90;;;;;;5043994;28;19921;-76
2022/10/01 12:13:58;;;;;;;;;;;10.90;99.90;;;;;;5044165;28;19980;-74
2022/10/01 12:16:30;;;;;;;;;;;11.00;99.90;;;;;;5043739;28;19921;-75
2022/10/01 12:18:58;;;;;;;;;;;11.00;99.90;;;;;;5044225;28;19944;-74
2022/10/01 12:21:26;;;;;;;;;;;11.10;99.90;;;;;;5044006;28;19937;-75
2022/10/01 12:23:58;;;;;;;;;;;11.10;99.90;;;;;;5048255;28;20216;-76
2022/10/01 12:26:29;;;;;;;;;;;11.20;99.90;;;;;;5063751;28;19920;-75
2022/10/01 12:28:57;;;;;;;;;;;11.20;99.90;;;;;;5047932;28;19960;-74
2022/10/01 12:31:27;;;;;;;;;;;11.30;99.90;;;;;;5043373;28;19988;-73
2022/10/01 12:34:03;;;;;;;;;;;11.30;99.90;;;;;;5043928;28;19921;-73
2022/10/01 12:36:36;;;;;;;;;;;11.40;99.90;;;;;;5059257;28;19921;-75
2022/10/01 12:39:12;;;;;;;;;;;11.40;99.90;;;;;;5056638;28;19992;-72
2022/10/01 12:41:45;;;;;;;;;;;11.50;99.90;;;;;;5043571;28;19992;-73
2022/10/01 12:44:31;;;;;;;;;;;11.50;99.90;;;;;;5057327;28;20119;-73
2022/10/01 12:47:04;;;;;;;;;;;11.50;99.90;;;;;;5043387;28;19921;-74
2022/10/01 12:49:35;;;;;;;;;;;11.50;99.90;;;;;;5058166;28;19924;-74
2022/10/01 12:52:07;;;;;;;;;;;11.40;99.90;;;;;;5062736;28;19974;-74
2022/10/01 12:54:53;;;;;;;;;;;11.40;99.90;;;;;;5049934;28;19952;-72
2022/10/01 12:57:27;;;;;;;;;;;11.30;99.90;;;;;;5059827;28;19948;-75
2022/10/01 13:00:02;;;;;;;;;;;11.30;99.90;;;;;;5055885;28;19929;-76
2022/10/01 13:02:44;;;;;;;;;;;11.30;99.90;;;;;;5044983;28;19953;-76
2022/10/01 13:05:18;;;;;;;;;;;11.30;99.90;;;;;;5047267;28;19984;-75
2022/10/01 13:07:49;;;;;;;;;;;11.20;99.90;;;;;;5050973;28;19921;-77
2022/10/01 13:10:30;;;;;;;;;;;11.20;99.90;;;;;;5047924;28;19921;-76
2022/10/01 13:13:00;;;;;;;;;;;11.10;99.90;;;;;;5057468;28;19925;-75
2022/10/01 13:15:28;;;;;;;;;;;11.10;99.90;;;;;;5051554;28;19948;-74
2022/10/01 13:17:58;;;;;;;;;;;11.20;99.90;;;;;;5055600;28;20212;-76
2022/10/01 13:20:29;;;;;;;;;;;11.20;99.90;;;;;;5043700;28;19996;-76
2022/10/01 13:22:59;;;;;;;;;;;11.20;99.90;;;;;;5043997;28;19925;-76
2022/10/01 13:25:30;;;;;;;;;;;11.20;99.90;;;;;;5053069;28;19920;-75
2022/10/01 13:28:00;;;;;;;;;;;11.20;99.90;;;;;;5052698;28;19992;-75
2022/10/01 13:30:30;;;;;;;;;;;11.10;99.90;;;;;;5048672;28;19932;-74
2022/10/01 13:32:59;;;;;;;;;;;11.10;99.90;;;;;;5043429;28;19927;-76
2022/10/01 13:35:27;;;;;;;;;;;11.10;99.90;;;;;;5059281;28;19921;-76
2022/10/01 13:37:54;;;;;;;;;;;11.20;99.90;;;;;;5063341;28;19921;-76
2022/10/01 13:40:22;;;;;;;;;;;11.10;99.90;;;;;;5062944;28;20003;-76
2022/10/01 13:42:51;;;;;;;;;;;11.20;99.90;;;;;;5063405;28;19984;-76
2022/10/01 13:45:23;;;;;;;;;;;11.20;99.90;;;;;;5062759;28;19943;-75
2022/10/01 13:47:50;;;;;;;;;;;11.20;99.90;;;;;;5044334;28;19921;-76
2022/10/01 13:50:22;;;;;;;;;;;11.20;99.90;;;;;;5047914;28;19928;-76
2022/10/01 13:52:49;;;;;;;;;;;11.20;99.90;;;;;;5058442;28;20112;-76
2022/10/01 13:55:26;;;;;;;;;;;11.30;99.90;;;;;;5062117;28;19927;-76
2022/10/01 13:58:02;;;;;;;;;;;11.30;99.90;;;;;;5062628;28;20120;-76
2022/10/01 14:00:29;;;;;;;;;;;11.30;99.90;;;;;;5060771;28;19920;-75
2022/10/01 14:03:00;;;;;;;;;;;11.30;99.90;;;;;;5065041;28;19922;-75
2022/10/01 14:05:31;;;;;;;;;;;11.30;99.90;;;;;;5046261;28;19943;-76
2022/10/01 14:08:09;;;;;;;;;;;11.30;99.90;;;;;;5062306;28;19920;-76
2022/10/01 14:15:57;;;;;;;;;;;11.30;99.90;;;;;;5066481;28;19987;-76
2022/10/01 14:16:12;;;;;;;;;;;11.40;99.90;;;;;;5065418;28;20119;-74
2022/10/01 14:18:40;;;;;;;;;;;11.40;99.90;;;;;;5065912;28;19921;-77
2022/10/01 14:21:13;;;;;;;;;;;11.30;99.90;;;;;;5066269;28;19952;-76
2022/10/01 14:23:44;;;;;;;;;;;11.40;99.90;;;;;;5066320;28;19928;-75
2022/10/01 14:26:17;;;;;;;;;;;11.40;99.90;;;;;;5063065;28;19927;-75
2022/10/01 14:28:52;;;;;;;;;;;11.40;99.90;;;;;;5057896;28;19927;-76
2022/10/01 14:31:24;;;;;;;;;;;11.40;99.90;;;;;;5047979;28;19921;-75
2022/10/01 14:34:01;;;;;;;;;;;11.40;99.90;;;;;;5045694;28;19944;-75
2022/10/01 14:36:33;;;;;;;;;;;11.50;99.90;;;;;;5055640;28;20270;-75
2022/10/01 14:39:04;;;;;;;;;;;11.50;99.90;;;;;;5065648;28;19920;-75
2022/10/01 14:41:33;;;;;;;;;;;11.50;99.90;;;;;;5064373;28;19992;-75
2022/10/01 14:44:01;;;;;;;;;;;11.50;99.90;;;;;;5063685;28;19985;-75
2022/10/01 14:46:28;;;;;;;;;;;11.60;99.90;;;;;;5064742;28;20164;-75
2022/10/01 14:48:59;;;;;;;;;;;11.60;99.90;;;;;;5065417;28;20151;-75